Time;durP1;ratioP1;P1;durP2;ratioP2;P2;SDS_P1;SDS_P2;PMS_P1;PMS_P2;Temp;Humidity;BMP_temperature;BMP_pressure;BME280_temperature;BME280_humidity;BME280_pressure;Samples;Min_cycle;Max_cycle;Signal;HPM_P1;HPM_P2
2021/09/08 00:02:22;;;;;;;40.63;33.03;;;16.00;97.20;;;;;;4994233;28;20403;-69
2021/09/08 00:04:48;;;;;;;37.90;32.60;;;16.00;96.90;;;;;;4994369;28;20053;-69
2021/09/08 00:07:13;;;;;;;41.27;31.93;;;16.00;96.90;;;;;;4993450;28;20042;-68
2021/09/08 00:09:39;;;;;;;41.37;32.77;;;16.00;97.00;;;;;;4994298;28;20613;-68
2021/09/08 00:12:06;;;;;;;43.17;32.00;;;15.90;97.00;;;;;;4993459;28;20132;-69
2021/09/08 00:14:32;;;;;;;41.90;33.23;;;15.90;97.00;;;;;;4994314;28;20049;-69
2021/09/08 00:16:57;;;;;;;42.50;32.87;;;15.90;97.10;;;;;;4994231;28;20129;-68
2021/09/08 00:19:23;;;;;;;42.07;33.47;;;15.90;97.10;;;;;;4992194;28;20073;-68
2021/09/08 00:21:49;;;;;;;42.17;34.73;;;15.90;97.10;;;;;;4994146;28;20074;-69
2021/09/08 00:24:14;;;;;;;43.03;33.23;;;15.80;97.10;;;;;;4992321;28;20050;-68
2021/09/08 00:26:40;;;;;;;47.37;33.73;;;15.80;97.10;;;;;;4992365;28;20468;-69
2021/09/08 00:29:06;;;;;;;42.40;34.47;;;15.80;97.20;;;;;;4993996;28;20046;-68
2021/09/08 00:31:32;;;;;;;42.73;35.00;;;15.70;97.20;;;;;;4994049;28;20173;-68
2021/09/08 00:33:57;;;;;;;40.87;32.70;;;15.70;97.30;;;;;;4992001;28;20046;-69
2021/09/08 00:36:23;;;;;;;45.53;35.30;;;15.70;97.30;;;;;;4993104;28;20141;-68
2021/09/08 00:38:48;;;;;;;40.20;33.03;;;15.70;97.30;;;;;;4993743;28;20124;-68
2021/09/08 00:41:14;;;;;;;42.37;34.97;;;15.70;97.30;;;;;;4991988;28;20073;-69
2021/09/08 00:43:39;;;;;;;44.87;33.70;;;15.60;97.40;;;;;;4994036;28;20467;-69
2021/09/08 00:46:06;;;;;;;43.47;34.30;;;15.60;97.50;;;;;;4992439;28;20116;-69
2021/09/08 00:48:32;;;;;;;41.67;35.03;;;15.60;97.50;;;;;;4991521;28;20048;-69
2021/09/08 00:50:58;;;;;;;42.60;33.80;;;15.60;97.60;;;;;;4992347;28;20042;-68
2021/09/08 00:53:24;;;;;;;46.53;36.90;;;15.50;97.50;;;;;;4991868;28;20137;-68
2021/09/08 00:55:49;;;;;;;44.07;34.93;;;15.50;97.50;;;;;;4991374;28;20038;-69
2021/09/08 00:58:16;;;;;;;45.07;35.23;;;15.50;97.60;;;;;;4993241;28;20038;-68
2021/09/08 01:00:42;;;;;;;42.43;34.23;;;15.50;97.60;;;;;;4993328;28;20534;-69
2021/09/08 01:03:08;;;;;;;47.93;36.17;;;15.40;97.70;;;;;;4990963;28;20137;-68
2021/09/08 01:05:33;;;;;;;44.47;32.67;;;15.40;97.70;;;;;;4993199;28;20133;-68
2021/09/08 01:07:59;;;;;;;40.73;33.87;;;15.40;97.80;;;;;;4993210;28;20155;-68
2021/09/08 01:10:26;;;;;;;47.53;34.47;;;15.30;97.80;;;;;;4990723;28;20046;-69
2021/09/08 01:12:52;;;;;;;42.80;35.40;;;15.30;97.90;;;;;;4992111;28;20109;-69
2021/09/08 01:15:18;;;;;;;46.33;37.93;;;15.30;97.90;;;;;;4992252;28;20034;-69
2021/09/08 01:17:44;;;;;;;46.70;36.23;;;15.30;98.00;;;;;;4993103;28;20046;-69
2021/09/08 01:20:12;;;;;;;44.67;35.63;;;15.30;98.00;;;;;;4991351;28;20046;-69
2021/09/08 01:22:48;;;;;;;44.53;37.03;;;15.30;98.10;;;;;;4992086;28;20046;-69
2021/09/08 01:25:22;;;;;;;49.33;37.77;;;15.30;98.00;;;;;;4991328;28;20054;-69
2021/09/08 01:27:50;;;;;;;46.07;37.37;;;15.20;98.00;;;;;;4992866;28;20050;-69
2021/09/08 01:30:21;;;;;;;46.83;36.80;;;15.20;98.10;;;;;;4992017;28;20038;-68
2021/09/08 01:32:49;;;;;;;50.33;37.38;;;15.20;98.20;;;;;;4993125;28;20046;-68
2021/09/08 01:35:20;;;;;;;46.47;34.80;;;15.10;98.20;;;;;;4992392;28;20073;-69
2021/09/08 01:37:46;;;;;;;52.03;38.43;;;15.10;98.20;;;;;;4992314;28;20061;-68
2021/09/08 01:40:13;;;;;;;50.97;39.27;;;15.10;98.30;;;;;;4992494;28;20395;-68
2021/09/08 01:42:39;;;;;;;47.03;37.57;;;15.10;98.30;;;;;;4992493;28;20554;-68
2021/09/08 01:45:05;;;;;;;48.23;37.70;;;15.10;98.30;;;;;;4990833;28;20158;-68
2021/09/08 01:47:30;;;;;;;48.70;38.37;;;15.10;98.40;;;;;;4992407;28;20049;-68
2021/09/08 01:49:56;;;;;;;48.37;38.30;;;15.00;98.30;;;;;;4992571;28;20355;-68
2021/09/08 01:52:21;;;;;;;50.07;37.43;;;15.00;98.80;;;;;;4990497;28;20077;-68
2021/09/08 01:54:47;;;;;;;46.10;35.00;;;15.00;98.40;;;;;;4991331;28;20520;-68
2021/09/08 01:57:12;;;;;;;48.77;37.37;;;15.00;98.50;;;;;;4991284;28;20121;-68
2021/09/08 01:59:38;;;;;;;48.20;36.53;;;14.90;98.50;;;;;;4991674;28;20447;-69
2021/09/08 02:02:04;;;;;;;53.57;37.97;;;14.90;98.50;;;;;;4991496;28;20066;-68
2021/09/08 02:04:29;;;;;;;47.70;36.57;;;14.90;98.60;;;;;;4991342;28;20069;-70
2021/09/08 02:06:55;;;;;;;44.83;35.30;;;14.90;98.70;;;;;;4992739;28;20054;-70
2021/09/08 02:09:21;;;;;;;48.93;37.10;;;14.90;98.70;;;;;;4991202;28;20104;-69
2021/09/08 02:11:46;;;;;;;39.40;31.67;;;14.90;98.70;;;;;;4992069;28;20050;-70
2021/09/08 02:14:12;;;;;;;49.07;35.90;;;14.90;98.80;;;;;;4993337;28;20046;-69
2021/09/08 02:16:38;;;;;;;47.93;37.57;;;14.90;98.70;;;;;;4996206;28;20450;-70
2021/09/08 02:19:04;;;;;;;49.20;37.70;;;14.90;98.70;;;;;;4994579;28;20047;-69
2021/09/08 02:21:30;;;;;;;45.10;35.53;;;14.90;98.70;;;;;;4996228;28;20105;-69
2021/09/08 02:23:56;;;;;;;45.87;35.30;;;14.90;98.70;;;;;;4995017;28;20070;-69
2021/09/08 02:26:21;;;;;;;45.80;35.83;;;14.90;98.70;;;;;;4994233;28;20041;-69
2021/09/08 02:28:47;;;;;;;50.70;37.70;;;14.80;99.10;;;;;;4995435;28;20050;-69
2021/09/08 02:31:13;;;;;;;48.90;36.43;;;14.80;98.70;;;;;;4995733;28;20395;-69
2021/09/08 02:33:38;;;;;;;50.37;37.23;;;14.80;98.70;;;;;;4995603;28;20042;-69
2021/09/08 02:36:05;;;;;;;46.67;36.80;;;14.80;98.80;;;;;;4994810;28;20407;-69
2021/09/08 02:38:31;;;;;;;49.10;38.63;;;14.70;98.80;;;;;;4995875;28;20046;-69
2021/09/08 02:41:05;;;;;;;51.67;38.23;;;14.80;98.80;;;;;;4995348;28;20045;-69
2021/09/08 02:43:31;;;;;;;49.33;38.57;;;14.70;98.80;;;;;;4995483;28;20176;-69
2021/09/08 02:46:00;;;;;;;45.80;37.10;;;14.70;98.80;;;;;;4995891;28;20133;-69
2021/09/08 02:48:25;;;;;;;48.03;38.20;;;14.70;98.80;;;;;;4995061;28;20058;-69
2021/09/08 02:50:51;;;;;;;47.77;36.10;;;14.70;98.80;;;;;;4994735;28;20160;-69
2021/09/08 02:53:16;;;;;;;49.57;37.93;;;14.70;98.80;;;;;;4994200;28;20065;-69
2021/09/08 02:55:42;;;;;;;49.07;36.73;;;14.60;98.80;;;;;;4995222;28;20555;-69
2021/09/08 02:58:07;;;;;;;37.47;30.37;;;14.60;98.90;;;;;;4995485;28;20460;-69
2021/09/08 03:00:33;;;;;;;51.63;36.67;;;14.60;98.90;;;;;;4995841;28;20050;-69
2021/09/08 03:02:58;;;;;;;48.73;38.60;;;14.50;98.90;;;;;;4993768;28;20129;-69
2021/09/08 03:05:24;;;;;;;50.17;37.23;;;14.50;98.90;;;;;;4995772;28;20046;-69
2021/09/08 03:07:50;;;;;;;51.10;39.70;;;14.50;99.00;;;;;;4993537;28;20081;-69
2021/09/08 03:10:15;;;;;;;50.27;37.63;;;14.50;99.00;;;;;;4995468;28;20146;-69
2021/09/08 03:12:41;;;;;;;48.73;36.47;;;14.50;99.10;;;;;;4994028;28;20049;-69
2021/09/08 03:15:07;;;;;;;46.90;36.97;;;14.40;99.10;;;;;;4994369;28;20841;-69
2021/09/08 03:17:32;;;;;;;43.80;35.20;;;14.40;99.10;;;;;;4995405;28;20093;-69
2021/09/08 03:19:58;;;;;;;49.43;37.33;;;14.40;99.10;;;;;;4993886;28;20388;-69
2021/09/08 03:22:23;;;;;;;56.67;41.23;;;14.40;99.10;;;;;;4994097;28;20434;-69
2021/09/08 03:24:49;;;;;;;54.03;40.13;;;14.40;99.10;;;;;;4994378;28;20050;-69
2021/09/08 03:27:15;;;;;;;54.87;40.63;;;14.40;99.10;;;;;;4995078;28;20401;-69
2021/09/08 03:29:40;;;;;;;56.87;40.37;;;14.40;99.10;;;;;;4993238;28;20046;-69
2021/09/08 03:32:07;;;;;;;50.23;38.33;;;14.40;99.10;;;;;;4995110;28;20045;-69
2021/09/08 03:34:33;;;;;;;48.93;37.17;;;14.40;99.10;;;;;;4995075;28;20047;-69
2021/09/08 03:36:59;;;;;;;52.53;38.27;;;14.40;99.10;;;;;;4994434;28;20455;-69
2021/09/08 03:39:25;;;;;;;51.23;40.10;;;14.30;99.20;;;;;;4994648;28;20074;-69
2021/09/08 03:41:50;;;;;;;46.30;36.97;;;14.30;99.20;;;;;;4995084;28;20050;-69
2021/09/08 03:44:16;;;;;;;46.37;37.03;;;14.40;99.20;;;;;;4976733;28;20046;-69
2021/09/08 03:46:42;;;;;;;48.17;36.43;;;14.30;99.10;;;;;;4994799;28;20052;-69
2021/09/08 03:49:07;;;;;;;54.30;40.20;;;14.30;99.10;;;;;;4994628;28;20136;-69
2021/09/08 03:51:34;;;;;;;48.47;38.97;;;14.30;99.20;;;;;;4976649;28;20133;-69
2021/09/08 03:54:00;;;;;;;56.77;39.90;;;14.30;99.20;;;;;;4994715;28;20056;-69
2021/09/08 03:56:26;;;;;;;51.57;40.00;;;14.30;99.60;;;;;;4994323;28;20058;-68
2021/09/08 03:58:52;;;;;;;56.30;39.97;;;14.20;99.20;;;;;;4976344;28;20412;-68
2021/09/08 04:01:18;;;;;;;57.17;39.67;;;14.20;99.20;;;;;;4976978;28;20062;-68
2021/09/08 04:03:47;;;;;;;49.83;37.67;;;14.20;99.20;;;;;;4994227;28;20053;-69
2021/09/08 04:06:13;;;;;;;55.47;37.60;;;14.10;99.30;;;;;;4975789;28;20097;-69
2021/09/08 04:08:38;;;;;;;54.37;38.97;;;14.10;99.30;;;;;;4994327;28;20046;-69
2021/09/08 04:11:04;;;;;;;52.17;40.13;;;14.10;99.30;;;;;;4993893;28;20053;-69
2021/09/08 04:13:29;;;;;;;59.50;41.73;;;14.10;99.40;;;;;;4993743;28;20105;-69
2021/09/08 04:15:55;;;;;;;51.03;39.07;;;14.00;99.30;;;;;;4976993;28;20050;-69
2021/09/08 04:18:21;;;;;;;52.67;41.20;;;14.10;99.40;;;;;;4975716;28;20052;-69
2021/09/08 04:20:46;;;;;;;51.03;37.23;;;14.00;99.30;;;;;;4976892;28;20435;-69
2021/09/08 04:23:12;;;;;;;57.67;39.87;;;14.00;99.30;;;;;;4976216;28;20050;-68
2021/09/08 04:25:37;;;;;;;57.73;41.23;;;14.00;99.40;;;;;;4993255;28;20042;-69
2021/09/08 04:28:03;;;;;;;51.17;36.03;;;14.00;99.40;;;;;;4993905;28;20045;-69
2021/09/08 04:30:29;;;;;;;49.83;36.67;;;14.00;99.40;;;;;;4993260;28;20042;-69
2021/09/08 04:32:54;;;;;;;56.67;40.70;;;13.90;99.40;;;;;;4993136;28;20382;-69
2021/09/08 04:35:20;;;;;;;46.60;37.07;;;14.00;99.50;;;;;;4993381;28;20149;-69
2021/09/08 04:37:45;;;;;;;56.13;40.03;;;13.90;99.50;;;;;;4993615;28;20042;-69
2021/09/08 04:40:11;;;;;;;56.97;42.23;;;14.00;99.50;;;;;;4992681;28;20046;-69
2021/09/08 04:42:37;;;;;;;53.63;42.30;;;13.90;99.50;;;;;;4993660;28;20039;-69
2021/09/08 04:45:03;;;;;;;60.73;43.40;;;13.90;99.50;;;;;;4993977;28;20054;-69
2021/09/08 04:47:28;;;;;;;60.83;44.87;;;13.90;99.50;;;;;;4992937;28;20433;-69
2021/09/08 04:49:54;;;;;;;60.10;46.60;;;14.00;99.50;;;;;;4992137;28;20129;-69
2021/09/08 04:52:19;;;;;;;59.87;44.63;;;13.90;99.50;;;;;;4992045;28;20387;-69
2021/09/08 04:54:45;;;;;;;60.30;45.07;;;13.90;99.50;;;;;;4992527;28;20046;-69
2021/09/08 04:57:10;;;;;;;62.63;46.13;;;13.90;99.50;;;;;;4991663;28;20054;-68
2021/09/08 04:59:36;;;;;;;61.90;43.17;;;13.90;99.50;;;;;;4993409;28;20043;-69
2021/09/08 05:02:02;;;;;;;68.70;47.47;;;13.90;99.50;;;;;;4991041;28;20137;-69
2021/09/08 05:04:27;;;;;;;63.63;47.33;;;13.90;99.50;;;;;;4991634;28;20046;-69
2021/09/08 05:06:53;;;;;;;75.03;49.47;;;13.80;99.60;;;;;;4993213;28;20491;-69
2021/09/08 05:09:18;;;;;;;72.10;48.73;;;13.80;99.60;;;;;;4992024;28;20380;-69
2021/09/08 05:11:44;;;;;;;66.07;47.23;;;13.80;99.70;;;;;;4992753;28;20049;-69
2021/09/08 05:14:09;;;;;;;68.90;47.77;;;13.80;99.80;;;;;;4992078;28;20594;-69
2021/09/08 05:16:35;;;;;;;60.33;43.97;;;13.80;99.90;;;;;;4992063;28;20129;-69
2021/09/08 05:19:00;;;;;;;62.37;47.63;;;13.80;99.90;;;;;;4992773;28;20479;-69
2021/09/08 05:21:26;;;;;;;63.93;46.53;;;13.90;99.90;;;;;;4991733;28;20227;-69
2021/09/08 05:23:52;;;;;;;65.70;49.50;;;13.90;99.90;;;;;;4992792;28;20042;-69
2021/09/08 05:26:17;;;;;;;64.87;47.17;;;13.90;99.90;;;;;;4991566;28;20042;-69
2021/09/08 05:28:43;;;;;;;62.93;46.60;;;14.00;99.90;;;;;;4990549;28;20097;-69
2021/09/08 05:31:08;;;;;;;64.73;45.67;;;14.00;99.90;;;;;;5007305;28;20430;-69
2021/09/08 05:33:34;;;;;;;60.37;47.07;;;14.00;99.90;;;;;;5012535;28;20038;-69
2021/09/08 05:36:00;;;;;;;66.87;48.87;;;14.00;99.90;;;;;;5007466;28;20669;-72
2021/09/08 05:38:25;;;;;;;59.43;45.40;;;14.00;99.90;;;;;;4985524;28;20507;-68
2021/09/08 05:40:51;;;;;;;58.43;44.63;;;14.00;99.90;;;;;;4981352;28;20046;-68
2021/09/08 05:43:16;;;;;;;60.37;45.63;;;14.00;99.80;;;;;;4981935;28;20074;-67
2021/09/08 05:45:43;;;;;;;62.40;46.13;;;14.10;99.90;;;;;;4991714;28;20388;-68
2021/09/08 05:48:09;;;;;;;58.43;46.67;;;14.10;99.90;;;;;;4991212;28;20045;-68
2021/09/08 05:50:35;;;;;;;63.47;47.00;;;14.10;99.90;;;;;;4988474;28;21513;-67
2021/09/08 05:53:03;;;;;;;61.17;46.37;;;14.10;99.90;;;;;;4984791;28;20057;-67
2021/09/08 05:55:29;;;;;;;59.03;45.03;;;14.10;99.90;;;;;;4989118;28;20546;-67
2021/09/08 05:57:55;;;;;;;61.33;45.77;;;14.10;99.90;;;;;;4987965;28;20050;-67
2021/09/08 06:00:20;;;;;;;62.03;46.90;;;14.20;99.90;;;;;;4988351;28;20093;-67
2021/09/08 06:02:46;;;;;;;58.60;44.57;;;14.20;99.90;;;;;;4988093;28;20053;-67
2021/09/08 06:05:12;;;;;;;57.17;44.20;;;14.30;99.90;;;;;;4988257;28;20084;-68
2021/09/08 06:07:37;;;;;;;49.70;42.10;;;14.30;99.90;;;;;;4988847;28;20161;-68
2021/09/08 06:10:03;;;;;;;51.87;41.63;;;14.30;99.90;;;;;;4988643;28;20054;-68
2021/09/08 06:12:29;;;;;;;50.93;41.30;;;14.40;99.90;;;;;;4987010;28;20498;-68
2021/09/08 06:14:55;;;;;;;53.07;41.10;;;14.50;99.90;;;;;;4988572;28;20125;-69
2021/09/08 06:17:20;;;;;;;55.60;42.90;;;14.50;99.80;;;;;;4987057;28;20111;-69
2021/09/08 06:19:46;;;;;;;49.53;40.80;;;14.50;99.80;;;;;;4987016;28;20057;-69
2021/09/08 06:22:11;;;;;;;51.73;42.30;;;14.60;99.70;;;;;;4988348;28;20050;-67
2021/09/08 06:24:37;;;;;;;53.27;40.60;;;14.60;99.70;;;;;;4987222;28;20050;-68
2021/09/08 06:27:03;;;;;;;54.07;42.77;;;14.60;99.70;;;;;;4988098;28;20046;-68
2021/09/08 06:29:29;;;;;;;53.13;39.67;;;14.70;99.70;;;;;;4989041;28;20069;-68
2021/09/08 06:31:54;;;;;;;53.73;41.20;;;14.70;99.70;;;;;;4988181;28;20475;-67
2021/09/08 06:34:20;;;;;;;56.70;42.83;;;14.70;99.60;;;;;;4986648;28;20137;-68
2021/09/08 06:36:45;;;;;;;49.20;41.23;;;14.70;99.60;;;;;;4986916;28;20046;-68
2021/09/08 06:39:11;;;;;;;49.13;39.53;;;14.80;99.60;;;;;;4986959;28;20468;-67
2021/09/08 06:41:36;;;;;;;48.10;39.07;;;14.90;99.60;;;;;;4988361;28;20058;-68
2021/09/08 06:44:02;;;;;;;46.97;40.07;;;14.90;99.50;;;;;;4987112;28;20043;-68
2021/09/08 06:46:28;;;;;;;54.50;40.53;;;15.00;99.50;;;;;;4987703;28;20122;-69
2021/09/08 06:48:54;;;;;;;50.87;39.50;;;15.00;99.40;;;;;;4986764;28;20149;-72
2021/09/08 06:51:21;;;;;;;48.70;38.87;;;15.10;99.30;;;;;;4987077;28;20181;-69
2021/09/08 06:53:46;;;;;;;46.70;36.50;;;15.20;99.30;;;;;;4988313;28;20125;-70
2021/09/08 06:56:12;;;;;;;42.80;34.97;;;15.20;99.30;;;;;;4988073;28;20188;-67
2021/09/08 06:58:38;;;;;;;42.80;35.23;;;15.30;99.20;;;;;;4987010;28;20500;-69
2021/09/08 07:01:03;;;;;;;42.67;37.83;;;15.40;99.10;;;;;;4990062;28;20146;-69
2021/09/08 07:03:29;;;;;;;40.20;33.87;;;15.50;98.90;;;;;;4991916;28;20074;-68
2021/09/08 07:05:54;;;;;;;42.77;35.60;;;15.50;98.70;;;;;;4989726;28;20046;-68
2021/09/08 07:08:20;;;;;;;45.40;35.07;;;15.70;98.60;;;;;;4989317;28;20049;-68
2021/09/08 07:10:48;;;;;;;38.63;33.90;;;15.80;98.50;;;;;;4991949;28;20050;-67
2021/09/08 07:13:13;;;;;;;39.63;35.07;;;15.90;98.40;;;;;;4992150;28;20090;-67
2021/09/08 07:15:39;;;;;;;35.33;31.03;;;16.00;98.20;;;;;;4989836;28;20440;-67
2021/09/08 07:18:05;;;;;;;34.40;29.87;;;16.00;98.00;;;;;;4991007;28;20054;-67
2021/09/08 07:20:30;;;;;;;37.27;32.10;;;16.10;97.80;;;;;;4991526;28;20048;-67
2021/09/08 07:22:56;;;;;;;34.03;30.00;;;16.20;97.60;;;;;;4988673;28;20054;-67
2021/09/08 07:25:23;;;;;;;34.70;30.77;;;16.30;97.40;;;;;;4990609;28;20065;-67
2021/09/08 07:27:48;;;;;;;37.20;31.33;;;16.40;97.30;;;;;;4991468;28;20046;-66
2021/09/08 07:30:14;;;;;;;33.20;27.70;;;16.40;97.20;;;;;;4991170;28;20045;-67
2021/09/08 07:32:40;;;;;;;33.33;27.13;;;16.50;97.10;;;;;;4991561;28;20060;-69
2021/09/08 07:35:06;;;;;;;29.70;25.30;;;16.60;96.80;;;;;;4990304;28;20050;-68
2021/09/08 07:37:33;;;;;;;28.17;25.17;;;16.70;96.50;;;;;;4991125;28;20112;-67
2021/09/08 07:39:58;;;;;;;30.87;25.63;;;16.80;96.40;;;;;;4991655;28;20050;-67
2021/09/08 07:42:24;;;;;;;33.23;27.47;;;16.90;96.30;;;;;;4989967;28;20455;-67
2021/09/08 07:44:49;;;;;;;30.67;25.37;;;17.00;96.10;;;;;;4991197;28;20047;-67
2021/09/08 07:47:15;;;;;;;29.43;26.13;;;17.00;95.90;;;;;;4989827;28;20057;-67
2021/09/08 07:49:40;;;;;;;31.83;26.60;;;17.10;95.70;;;;;;4990560;28;20065;-67
2021/09/08 07:52:06;;;;;;;29.63;26.23;;;17.20;95.60;;;;;;4985233;28;20451;-67
2021/09/08 07:54:32;;;;;;;29.57;25.70;;;17.20;95.60;;;;;;4989571;28;20050;-67
2021/09/08 07:56:57;;;;;;;29.67;25.67;;;17.30;95.60;;;;;;4989945;28;20104;-66
2021/09/08 07:59:23;;;;;;;28.73;24.93;;;17.30;95.40;;;;;;4990368;28;20049;-67
2021/09/08 08:01:48;;;;;;;27.97;24.60;;;17.40;95.30;;;;;;4989561;28;20152;-66
2021/09/08 08:04:15;;;;;;;29.23;24.20;;;17.50;95.20;;;;;;4988603;28;20046;-71
2021/09/08 08:06:41;;;;;;;29.03;23.37;;;17.60;95.00;;;;;;4989241;28;20046;-72
2021/09/08 08:09:06;;;;;;;28.63;25.63;;;17.70;95.00;;;;;;4990050;28;20108;-72
2021/09/08 08:11:33;;;;;;;27.80;23.63;;;17.80;95.00;;;;;;4987987;28;20042;-72
2021/09/08 08:13:59;;;;;;;25.13;20.63;;;17.90;94.90;;;;;;4989673;28;20050;-72
2021/09/08 08:16:24;;;;;;;31.00;24.03;;;18.00;94.60;;;;;;4990046;28;20141;-72
2021/09/08 08:18:50;;;;;;;28.33;24.60;;;18.10;94.70;;;;;;4988524;28;20050;-72
2021/09/08 08:21:16;;;;;;;26.27;23.43;;;18.20;95.20;;;;;;4988525;28;20514;-73
2021/09/08 08:23:41;;;;;;;27.97;21.50;;;18.40;94.80;;;;;;4990577;28;20046;-73
2021/09/08 08:26:08;;;;;;;24.97;22.33;;;18.50;94.40;;;;;;4989501;28;20050;-73
2021/09/08 08:28:34;;;;;;;23.10;19.63;;;18.60;94.30;;;;;;4989930;28;20038;-72
2021/09/08 08:31:00;;;;;;;23.77;19.93;;;18.60;94.10;;;;;;4990322;28;20054;-73
2021/09/08 08:33:27;;;;;;;22.77;19.10;;;18.80;93.40;;;;;;4989229;28;20098;-72
2021/09/08 08:35:52;;;;;;;21.87;18.03;;;18.90;92.90;;;;;;4990056;28;20054;-73
2021/09/08 08:38:18;;;;;;;21.53;19.23;;;19.00;92.50;;;;;;4988346;28;20507;-72
2021/09/08 08:40:44;;;;;;;21.67;18.67;;;19.10;92.30;;;;;;4989853;28;20131;-72
2021/09/08 08:43:10;;;;;;;20.90;17.97;;;19.10;92.20;;;;;;4989115;28;20038;-72
2021/09/08 08:45:36;;;;;;;18.30;16.30;;;19.20;91.90;;;;;;4988974;28;20053;-71
2021/09/08 08:48:02;;;;;;;19.43;17.27;;;19.20;91.60;;;;;;4989902;28;20046;-72
2021/09/08 08:50:28;;;;;;;21.60;19.30;;;19.30;91.30;;;;;;4988780;28;20074;-72
2021/09/08 08:52:55;;;;;;;19.87;17.77;;;19.40;91.00;;;;;;4987929;28;20175;-71
2021/09/08 08:55:21;;;;;;;22.20;17.87;;;19.40;90.80;;;;;;4988089;28;20076;-72
2021/09/08 08:57:48;;;;;;;20.20;16.97;;;19.50;90.80;;;;;;4990221;28;20038;-72
2021/09/08 09:00:15;;;;;;;18.90;16.90;;;19.50;90.70;;;;;;4987623;28;20547;-72
2021/09/08 09:02:47;;;;;;;18.20;15.93;;;19.60;90.70;;;;;;4989878;28;20046;-72
2021/09/08 09:05:28;;;;;;;19.30;17.30;;;19.70;90.90;;;;;;4988269;28;20054;-71
2021/09/08 09:07:53;;;;;;;19.70;16.65;;;19.70;90.30;;;;;;4988826;28;20088;-72
2021/09/08 09:10:19;;;;;;;19.20;16.63;;;19.80;90.00;;;;;;4988014;28;20054;-72
2021/09/08 09:12:46;;;;;;;18.27;16.07;;;19.90;89.60;;;;;;4988976;28;20038;-72
2021/09/08 09:15:17;;;;;;;18.17;14.67;;;19.90;89.70;;;;;;4986905;28;20050;-73
2021/09/08 09:17:45;;;;;;;18.73;15.27;;;20.00;89.70;;;;;;4988463;28;20042;-73
2021/09/08 09:20:16;;;;;;;16.70;14.60;;;20.10;89.90;;;;;;4987681;28;20057;-73
2021/09/08 09:22:45;;;;;;;17.37;13.73;;;20.20;89.40;;;;;;4986686;28;20054;-73
2021/09/08 09:25:17;;;;;;;16.90;13.33;;;20.20;89.50;;;;;;4987371;28;20081;-73
2021/09/08 09:27:47;;;;;;;16.77;14.93;;;20.30;89.10;;;;;;4987368;28;20426;-72
2021/09/08 09:30:16;;;;;;;19.07;13.77;;;20.30;87.90;;;;;;4988892;28;20057;-72
2021/09/08 09:32:43;;;;;;;13.77;12.30;;;20.40;87.30;;;;;;4989225;28;20057;-73
2021/09/08 09:35:12;;;;;;;17.30;13.83;;;20.50;86.70;;;;;;4987677;28;20140;-72
2021/09/08 09:37:44;;;;;;;15.05;12.10;;;20.60;85.20;;;;;;4988453;28;20396;-72
2021/09/08 09:40:10;;;;;;;17.65;13.13;;;20.60;84.50;;;;;;4988709;28;20053;-73
2021/09/08 09:42:39;;;;;;;15.57;12.88;;;20.70;84.60;;;;;;4988229;28;20046;-72
2021/09/08 09:45:06;;;;;;;17.73;13.32;;;20.80;85.20;;;;;;4988864;28;20069;-73
2021/09/08 09:47:36;;;;;;;14.80;11.13;;;20.80;84.30;;;;;;4989187;28;20045;-73
2021/09/08 09:50:09;;;;;;;16.53;13.30;;;20.80;83.90;;;;;;4988145;28;20050;-72
2021/09/08 09:52:35;;;;;;;13.27;11.55;;;20.90;83.70;;;;;;4988863;28;20289;-72
2021/09/08 09:55:03;;;;;;;13.88;10.43;;;21.00;83.40;;;;;;4987876;28;20056;-71
2021/09/08 09:57:30;;;;;;;12.63;11.13;;;21.10;83.80;;;;;;4987045;28;20050;-72
2021/09/08 09:59:58;;;;;;;15.50;11.55;;;21.10;83.10;;;;;;4987817;28;20179;-72
2021/09/08 10:02:24;;;;;;;12.52;10.52;;;21.20;82.70;;;;;;4987077;28;20386;-72
2021/09/08 10:04:49;;;;;;;18.90;11.43;;;21.30;82.30;;;;;;4988829;28;20120;-72
2021/09/08 10:07:19;;;;;;;14.73;12.27;;;21.40;81.70;;;;;;4987883;28;20500;-71
2021/09/08 10:09:49;;;;;;;13.73;11.75;;;21.40;81.60;;;;;;4988381;28;20061;-72
2021/09/08 10:12:16;;;;;;;12.95;10.20;;;21.50;81.20;;;;;;4988022;28;20400;-72
2021/09/08 10:14:44;;;;;;;14.57;11.68;;;21.60;81.60;;;;;;4989034;28;20057;-72
2021/09/08 10:17:10;;;;;;;13.10;10.82;;;21.60;80.40;;;;;;4986326;28;20116;-73
2021/09/08 10:19:39;;;;;;;14.20;10.18;;;21.70;79.50;;;;;;4987209;28;20050;-73
2021/09/08 10:22:08;;;;;;;13.43;9.82;;;21.80;78.60;;;;;;4987888;28;20064;-72
2021/09/08 10:24:33;;;;;;;11.02;9.30;;;21.90;77.90;;;;;;4986991;28;20057;-72
2021/09/08 10:27:00;;;;;;;12.95;9.98;;;22.00;76.90;;;;;;4987948;28;20046;-73
2021/09/08 10:29:27;;;;;;;11.48;8.70;;;22.10;76.50;;;;;;4987690;28;20054;-72
2021/09/08 10:31:56;;;;;;;11.30;9.48;;;22.20;76.50;;;;;;4987856;28;20042;-72
2021/09/08 10:34:22;;;;;;;11.88;10.05;;;22.20;75.90;;;;;;4989000;28;20038;-72
2021/09/08 10:36:48;;;;;;;13.63;9.57;;;22.30;75.20;;;;;;4990432;28;20117;-73
2021/09/08 10:39:17;;;;;;;11.95;9.25;;;22.40;75.30;;;;;;4989606;28;20424;-73
2021/09/08 10:41:51;;;;;;;11.45;8.80;;;22.50;74.90;;;;;;4990964;28;20539;-73
2021/09/08 10:44:38;;;;;;;14.57;9.93;;;22.60;74.70;;;;;;4989902;28;20046;-73
2021/09/08 10:47:04;;;;;;;12.55;10.43;;;22.80;74.20;;;;;;4989591;28;20454;-72
2021/09/08 10:49:39;;;;;;;14.00;9.80;;;22.90;73.70;;;;;;4988336;28;20054;-72
2021/09/08 10:52:05;;;;;;;15.30;10.18;;;23.00;73.70;;;;;;4989243;28;20058;-72
2021/09/08 10:54:31;;;;;;;10.38;8.88;;;23.10;73.20;;;;;;4987887;28;20228;-72
2021/09/08 10:56:58;;;;;;;10.30;8.80;;;23.20;72.50;;;;;;4989336;28;20060;-72
2021/09/08 10:59:24;;;;;;;15.38;9.45;;;23.30;72.20;;;;;;4988219;28;20366;-72
2021/09/08 11:01:53;;;;;;;14.48;10.25;;;23.40;71.40;;;;;;4990423;28;20076;-71
2021/09/08 11:04:18;;;;;;;11.73;8.60;;;23.50;70.40;;;;;;4989212;28;20047;-72
2021/09/08 11:06:48;;;;;;;10.43;9.02;;;23.60;70.40;;;;;;4990325;28;20057;-71
2021/09/08 11:09:16;;;;;;;13.10;11.05;;;23.60;70.00;;;;;;4990951;28;20796;-71
2021/09/08 11:11:52;;;;;;;10.52;9.10;;;23.70;69.30;;;;;;4991963;28;20046;-72
2021/09/08 11:14:19;;;;;;;11.70;9.38;;;23.80;69.30;;;;;;4988465;28;20054;-71
2021/09/08 11:16:44;;;;;;;10.77;8.80;;;23.90;69.30;;;;;;4991289;28;20105;-71
2021/09/08 11:19:14;;;;;;;15.98;9.07;;;24.00;69.10;;;;;;4990516;28;20042;-71
2021/09/08 11:21:40;;;;;;;12.88;9.00;;;24.10;68.80;;;;;;4990811;28;20050;-71
2021/09/08 11:24:09;;;;;;;11.82;8.73;;;24.20;68.40;;;;;;4990852;28;20050;-72
2021/09/08 11:26:37;;;;;;;12.35;8.60;;;24.40;67.40;;;;;;4990918;28;20470;-72
2021/09/08 11:29:14;;;;;;;10.80;8.23;;;24.40;66.00;;;;;;4989176;28;20089;-71
2021/09/08 11:31:43;;;;;;;11.13;8.10;;;24.50;66.90;;;;;;4991169;28;20061;-72
2021/09/08 11:34:23;;;;;;;12.32;7.72;;;24.60;64.70;;;;;;4990286;28;20080;-73
2021/09/08 11:36:58;;;;;;;9.40;7.78;;;24.70;64.70;;;;;;4990351;28;20125;-71
2021/09/08 11:39:25;;;;;;;8.85;6.68;;;24.70;64.30;;;;;;4990653;28;20453;-70
2021/09/08 11:41:57;;;;;;;10.75;7.00;;;24.80;63.80;;;;;;4990604;28;20137;-72
2021/09/08 11:44:23;;;;;;;9.32;7.18;;;24.90;63.70;;;;;;4989470;28;20046;-72
2021/09/08 11:46:48;;;;;;;8.32;6.82;;;24.90;63.40;;;;;;4987918;28;20053;-72
2021/09/08 11:49:14;;;;;;;9.98;7.05;;;25.00;62.70;;;;;;4989967;28;20149;-72
2021/09/08 11:51:45;;;;;;;7.90;6.95;;;25.10;61.70;;;;;;4990375;28;20510;-72
2021/09/08 11:54:19;;;;;;;7.00;6.30;;;25.10;60.80;;;;;;4988860;28;20045;-72
2021/09/08 11:56:54;;;;;;;8.70;6.53;;;25.20;61.00;;;;;;4989638;28;20491;-71
2021/09/08 11:59:29;;;;;;;7.72;6.18;;;25.20;60.50;;;;;;4989026;28;20388;-72
2021/09/08 12:01:55;;;;;;;8.55;6.45;;;25.20;60.40;;;;;;4990888;28;20054;-72
2021/09/08 12:04:23;;;;;;;9.25;6.28;;;25.20;60.00;;;;;;4988915;28;20053;-72
2021/09/08 12:07:03;;;;;;;7.93;6.00;;;25.30;59.20;;;;;;4990530;28;20042;-72
2021/09/08 12:09:33;;;;;;;8.73;5.80;;;25.40;59.40;;;;;;4989375;28;20053;-72
2021/09/08 12:12:08;;;;;;;8.77;5.85;;;25.40;58.90;;;;;;4990869;28;20088;-72
2021/09/08 12:14:40;;;;;;;6.75;5.80;;;25.40;58.50;;;;;;4988376;28;20054;-71
2021/09/08 12:17:19;;;;;;;7.25;5.75;;;25.40;57.90;;;;;;4988689;28;20148;-72
2021/09/08 12:20:06;;;;;;;8.75;5.82;;;25.50;57.90;;;;;;4989906;28;20403;-72
2021/09/08 12:22:38;;;;;;;8.75;5.65;;;25.50;57.90;;;;;;4988926;28;20035;-71
2021/09/08 12:25:09;;;;;;;9.45;5.53;;;25.50;57.30;;;;;;4988818;28;20100;-72
2021/09/08 12:27:35;;;;;;;7.82;5.72;;;25.60;57.80;;;;;;4988371;28;20503;-72